sensor_id;sensor_type;location;lat;lon;timestamp;P1;durP1;ratioP1;P2;durP2;ratioP2
11807;SDS011;5961;42.640;23.380;2023-08-07T00:00:25;1.77;;;1.63;;
11807;SDS011;5961;42.640;23.380;2023-08-07T00:02:52;2.13;;;2.03;;
11807;SDS011;5961;42.640;23.380;2023-08-07T00:05:20;2.87;;;2.20;;
11807;SDS011;5961;42.640;23.380;2023-08-07T00:07:46;1.80;;;1.70;;
11807;SDS011;5961;42.640;23.380;2023-08-07T00:10:13;1.87;;;1.77;;
11807;SDS011;5961;42.640;23.380;2023-08-07T00:12:40;1.80;;;1.70;;
11807;SDS011;5961;42.640;23.380;2023-08-07T00:15:08;2.40;;;2.20;;
11807;SDS011;5961;42.640;23.380;2023-08-07T00:17:35;2.13;;;1.80;;
11807;SDS011;5961;42.640;23.380;2023-08-07T00:20:03;2.17;;;1.80;;
11807;SDS011;5961;42.640;23.380;2023-08-07T00:22:32;1.80;;;1.70;;
11807;SDS011;5961;42.640;23.380;2023-08-07T00:24:59;1.90;;;1.80;;
11807;SDS011;5961;42.640;23.380;2023-08-07T00:27:26;1.80;;;1.70;;
11807;SDS011;5961;42.640;23.380;2023-08-07T00:29:52;2.13;;;1.93;;
11807;SDS011;5961;42.640;23.380;2023-08-07T00:32:19;1.87;;;1.77;;
11807;SDS011;5961;42.640;23.380;2023-08-07T00:34:46;2.27;;;2.07;;
11807;SDS011;5961;42.640;23.380;2023-08-07T00:37:13;2.00;;;1.90;;
11807;SDS011;5961;42.640;23.380;2023-08-07T00:39:41;2.60;;;1.90;;
11807;SDS011;5961;42.640;23.380;2023-08-07T00:42:08;2.30;;;2.10;;
11807;SDS011;5961;42.640;23.380;2023-08-07T00:44:34;2.53;;;2.13;;
11807;SDS011;5961;42.640;23.380;2023-08-07T00:47:01;2.60;;;2.40;;
11807;SDS011;5961;42.640;23.380;2023-08-07T00:49:28;2.40;;;2.20;;
11807;SDS011;5961;42.640;23.380;2023-08-07T00:51:55;3.67;;;2.00;;
11807;SDS011;5961;42.640;23.380;2023-08-07T00:54:22;2.47;;;2.27;;
11807;SDS011;5961;42.640;23.380;2023-08-07T00:56:50;2.20;;;2.00;;
11807;SDS011;5961;42.640;23.380;2023-08-07T00:59:17;3.30;;;2.10;;
11807;SDS011;5961;42.640;23.380;2023-08-07T01:01:45;2.57;;;2.37;;
11807;SDS011;5961;42.640;23.380;2023-08-07T01:04:11;2.40;;;2.20;;
11807;SDS011;5961;42.640;23.380;2023-08-07T01:06:38;2.40;;;2.20;;
11807;SDS011;5961;42.640;23.380;2023-08-07T01:09:05;2.60;;;2.40;;
11807;SDS011;5961;42.640;23.380;2023-08-07T01:11:33;2.50;;;2.30;;
11807;SDS011;5961;42.640;23.380;2023-08-07T01:14:08;2.60;;;2.40;;
11807;SDS011;5961;42.640;23.380;2023-08-07T01:16:44;2.70;;;2.50;;
11807;SDS011;5961;42.640;23.380;2023-08-07T01:19:24;2.57;;;2.37;;
11807;SDS011;5961;42.640;23.380;2023-08-07T01:22:04;2.30;;;2.20;;
11807;SDS011;5961;42.640;23.380;2023-08-07T01:24:32;2.60;;;2.40;;
11807;SDS011;5961;42.640;23.380;2023-08-07T01:27:00;2.50;;;2.30;;
11807;SDS011;5961;42.640;23.380;2023-08-07T01:29:35;3.00;;;2.80;;
11807;SDS011;5961;42.640;23.380;2023-08-07T01:32:08;3.07;;;2.80;;
11807;SDS011;5961;42.640;23.380;2023-08-07T01:34:38;2.50;;;2.30;;
11807;SDS011;5961;42.640;23.380;2023-08-07T01:37:09;2.93;;;2.63;;
11807;SDS011;5961;42.640;23.380;2023-08-07T01:39:37;4.07;;;2.67;;
11807;SDS011;5961;42.640;23.380;2023-08-07T01:42:04;3.07;;;2.87;;
11807;SDS011;5961;42.640;23.380;2023-08-07T01:44:32;3.20;;;2.90;;
11807;SDS011;5961;42.640;23.380;2023-08-07T01:46:59;2.87;;;2.67;;
11807;SDS011;5961;42.640;23.380;2023-08-07T01:49:25;3.00;;;2.80;;
11807;SDS011;5961;42.640;23.380;2023-08-07T01:51:52;3.47;;;2.97;;
11807;SDS011;5961;42.640;23.380;2023-08-07T01:54:20;3.00;;;2.80;;
11807;SDS011;5961;42.640;23.380;2023-08-07T01:56:47;3.10;;;2.90;;
11807;SDS011;5961;42.640;23.380;2023-08-07T01:59:13;3.03;;;2.83;;
11807;SDS011;5961;42.640;23.380;2023-08-07T02:01:40;3.60;;;3.13;;
11807;SDS011;5961;42.640;23.380;2023-08-07T02:04:07;3.43;;;3.17;;
11807;SDS011;5961;42.640;23.380;2023-08-07T02:06:33;3.30;;;3.10;;
11807;SDS011;5961;42.640;23.380;2023-08-07T02:09:00;3.03;;;2.83;;
11807;SDS011;5961;42.640;23.380;2023-08-07T02:11:28;3.30;;;3.03;;
11807;SDS011;5961;42.640;23.380;2023-08-07T02:13:55;3.27;;;3.00;;
11807;SDS011;5961;42.640;23.380;2023-08-07T02:16:21;3.07;;;2.87;;
11807;SDS011;5961;42.640;23.380;2023-08-07T02:18:48;3.40;;;3.20;;
11807;SDS011;5961;42.640;23.380;2023-08-07T02:21:15;3.63;;;3.33;;
11807;SDS011;5961;42.640;23.380;2023-08-07T02:23:41;3.37;;;3.07;;
11807;SDS011;5961;42.640;23.380;2023-08-07T02:26:08;3.83;;;3.37;;
11807;SDS011;5961;42.640;23.380;2023-08-07T02:28:36;3.47;;;3.20;;
11807;SDS011;5961;42.640;23.380;2023-08-07T02:31:03;3.03;;;2.83;;
11807;SDS011;5961;42.640;23.380;2023-08-07T02:33:29;3.43;;;3.23;;
11807;SDS011;5961;42.640;23.380;2023-08-07T02:35:56;3.40;;;3.10;;
11807;SDS011;5961;42.640;23.380;2023-08-07T02:38:23;3.60;;;3.33;;
11807;SDS011;5961;42.640;23.380;2023-08-07T02:40:50;3.20;;;3.00;;
11807;SDS011;5961;42.640;23.380;2023-08-07T02:43:17;3.87;;;3.50;;
11807;SDS011;5961;42.640;23.380;2023-08-07T02:45:45;3.87;;;3.57;;
11807;SDS011;5961;42.640;23.380;2023-08-07T02:48:12;3.70;;;3.30;;
11807;SDS011;5961;42.640;23.380;2023-08-07T02:50:39;3.30;;;3.10;;
11807;SDS011;5961;42.640;23.380;2023-08-07T02:53:05;3.30;;;3.10;;
11807;SDS011;5961;42.640;23.380;2023-08-07T02:55:32;3.93;;;3.20;;
11807;SDS011;5961;42.640;23.380;2023-08-07T02:57:59;2.90;;;2.70;;
11807;SDS011;5961;42.640;23.380;2023-08-07T03:00:25;2.93;;;2.67;;
11807;SDS011;5961;42.640;23.380;2023-08-07T03:02:54;3.00;;;2.80;;
11807;SDS011;5961;42.640;23.380;2023-08-07T03:05:20;2.80;;;2.60;;
11807;SDS011;5961;42.640;23.380;2023-08-07T03:07:47;3.27;;;3.00;;
11807;SDS011;5961;42.640;23.380;2023-08-07T03:10:14;3.00;;;2.60;;
11807;SDS011;5961;42.640;23.380;2023-08-07T03:12:40;2.97;;;2.77;;
11807;SDS011;5961;42.640;23.380;2023-08-07T03:15:07;3.77;;;2.90;;
11807;SDS011;5961;42.640;23.380;2023-08-07T03:17:34;3.83;;;3.43;;
11807;SDS011;5961;42.640;23.380;2023-08-07T03:20:02;3.60;;;3.30;;
11807;SDS011;5961;42.640;23.380;2023-08-07T03:22:30;3.83;;;3.53;;
11807;SDS011;5961;42.640;23.380;2023-08-07T03:24:56;3.50;;;3.20;;
11807;SDS011;5961;42.640;23.380;2023-08-07T03:27:23;4.13;;;3.77;;
11807;SDS011;5961;42.640;23.380;2023-08-07T03:29:50;4.20;;;3.37;;
11807;SDS011;5961;42.640;23.380;2023-08-07T03:32:17;3.53;;;3.30;;
11807;SDS011;5961;42.640;23.380;2023-08-07T03:34:43;4.13;;;3.73;;
11807;SDS011;5961;42.640;23.380;2023-08-07T03:37:11;4.23;;;3.50;;
11807;SDS011;5961;42.640;23.380;2023-08-07T03:39:38;4.13;;;3.30;;
11807;SDS011;5961;42.640;23.380;2023-08-07T03:42:05;3.70;;;3.30;;
11807;SDS011;5961;42.640;23.380;2023-08-07T03:44:32;3.33;;;3.07;;
11807;SDS011;5961;42.640;23.380;2023-08-07T03:46:59;3.33;;;3.03;;
11807;SDS011;5961;42.640;23.380;2023-08-07T03:49:26;3.47;;;3.17;;
11807;SDS011;5961;42.640;23.380;2023-08-07T03:51:53;3.63;;;3.33;;
11807;SDS011;5961;42.640;23.380;2023-08-07T03:54:21;3.53;;;3.23;;
11807;SDS011;5961;42.640;23.380;2023-08-07T03:56:47;3.53;;;3.23;;
11807;SDS011;5961;42.640;23.380;2023-08-07T03:59:16;3.87;;;3.47;;
11807;SDS011;5961;42.640;23.380;2023-08-07T04:01:43;3.20;;;3.00;;
11807;SDS011;5961;42.640;23.380;2023-08-07T04:04:10;3.70;;;3.40;;
11807;SDS011;5961;42.640;23.380;2023-08-07T04:06:36;3.90;;;3.50;;
11807;SDS011;5961;42.640;23.380;2023-08-07T04:09:03;3.90;;;3.60;;
11807;SDS011;5961;42.640;23.380;2023-08-07T04:11:31;3.37;;;3.07;;
11807;SDS011;5961;42.640;23.380;2023-08-07T04:13:58;3.80;;;3.10;;
11807;SDS011;5961;42.640;23.380;2023-08-07T04:16:25;3.40;;;3.10;;
11807;SDS011;5961;42.640;23.380;2023-08-07T04:18:52;3.17;;;2.97;;
11807;SDS011;5961;42.640;23.380;2023-08-07T04:21:18;3.23;;;3.00;;
11807;SDS011;5961;42.640;23.380;2023-08-07T04:23:45;3.30;;;3.00;;
11807;SDS011;5961;42.640;23.380;2023-08-07T04:26:12;3.37;;;3.07;;
11807;SDS011;5961;42.640;23.380;2023-08-07T04:28:40;3.20;;;2.90;;
11807;SDS011;5961;42.640;23.380;2023-08-07T04:31:08;3.10;;;2.90;;
11807;SDS011;5961;42.640;23.380;2023-08-07T04:33:35;3.20;;;3.00;;
11807;SDS011;5961;42.640;23.380;2023-08-07T04:36:02;3.57;;;3.00;;
11807;SDS011;5961;42.640;23.380;2023-08-07T04:38:29;3.17;;;2.87;;
11807;SDS011;5961;42.640;23.380;2023-08-07T04:40:56;3.40;;;3.10;;
11807;SDS011;5961;42.640;23.380;2023-08-07T04:43:23;3.63;;;3.23;;
11807;SDS011;5961;42.640;23.380;2023-08-07T04:45:51;3.67;;;3.37;;
11807;SDS011;5961;42.640;23.380;2023-08-07T04:48:17;3.50;;;3.20;;
11807;SDS011;5961;42.640;23.380;2023-08-07T04:50:46;3.27;;;3.07;;
11807;SDS011;5961;42.640;23.380;2023-08-07T04:53:12;4.87;;;3.33;;
11807;SDS011;5961;42.640;23.380;2023-08-07T04:55:39;3.37;;;3.07;;
11807;SDS011;5961;42.640;23.380;2023-08-07T04:58:06;4.13;;;3.00;;
11807;SDS011;5961;42.640;23.380;2023-08-07T05:00:33;5.10;;;3.30;;
11807;SDS011;5961;42.640;23.380;2023-08-07T05:03:01;3.70;;;3.20;;
11807;SDS011;5961;42.640;23.380;2023-08-07T05:05:27;3.53;;;3.23;;
11807;SDS011;5961;42.640;23.380;2023-08-07T05:07:54;4.53;;;2.93;;
11807;SDS011;5961;42.640;23.380;2023-08-07T05:10:21;2.80;;;2.60;;
11807;SDS011;5961;42.640;23.380;2023-08-07T05:12:48;3.17;;;2.97;;
11807;SDS011;5961;42.640;23.380;2023-08-07T05:15:20;3.40;;;3.17;;
11807;SDS011;5961;42.640;23.380;2023-08-07T05:17:46;5.37;;;3.00;;
11807;SDS011;5961;42.640;23.380;2023-08-07T05:20:14;3.30;;;3.00;;
11807;SDS011;5961;42.640;23.380;2023-08-07T05:22:42;4.47;;;3.40;;
11807;SDS011;5961;42.640;23.380;2023-08-07T05:25:08;3.13;;;2.93;;
11807;SDS011;5961;42.640;23.380;2023-08-07T05:27:36;3.07;;;2.87;;
11807;SDS011;5961;42.640;23.380;2023-08-07T05:30:03;3.87;;;3.57;;
11807;SDS011;5961;42.640;23.380;2023-08-07T05:32:31;3.50;;;3.20;;
11807;SDS011;5961;42.640;23.380;2023-08-07T05:34:58;3.47;;;2.70;;
11807;SDS011;5961;42.640;23.380;2023-08-07T05:37:27;3.20;;;2.80;;
11807;SDS011;5961;42.640;23.380;2023-08-07T05:39:54;3.30;;;2.90;;
11807;SDS011;5961;42.640;23.380;2023-08-07T05:42:21;4.37;;;3.27;;
11807;SDS011;5961;42.640;23.380;2023-08-07T05:44:48;3.20;;;2.90;;
11807;SDS011;5961;42.640;23.380;2023-08-07T05:47:15;4.60;;;4.13;;
11807;SDS011;5961;42.640;23.380;2023-08-07T05:49:42;3.70;;;2.83;;
11807;SDS011;5961;42.640;23.380;2023-08-07T05:52:08;3.40;;;2.70;;
11807;SDS011;5961;42.640;23.380;2023-08-07T05:54:36;3.00;;;2.80;;
11807;SDS011;5961;42.640;23.380;2023-08-07T05:57:03;3.10;;;2.90;;
11807;SDS011;5961;42.640;23.380;2023-08-07T05:59:30;2.90;;;2.70;;
11807;SDS011;5961;42.640;23.380;2023-08-07T06:01:59;3.80;;;2.90;;
11807;SDS011;5961;42.640;23.380;2023-08-07T06:04:27;3.00;;;2.80;;
11807;SDS011;5961;42.640;23.380;2023-08-07T06:06:54;2.70;;;2.50;;
11807;SDS011;5961;42.640;23.380;2023-08-07T06:09:20;2.83;;;2.63;;
11807;SDS011;5961;42.640;23.380;2023-08-07T06:11:49;3.57;;;2.97;;
11807;SDS011;5961;42.640;23.380;2023-08-07T06:14:15;3.03;;;2.83;;
11807;SDS011;5961;42.640;23.380;2023-08-07T06:16:42;3.13;;;2.70;;
11807;SDS011;5961;42.640;23.380;2023-08-07T06:19:09;3.43;;;2.90;;
11807;SDS011;5961;42.640;23.380;2023-08-07T06:21:35;3.60;;;2.77;;
11807;SDS011;5961;42.640;23.380;2023-08-07T06:24:02;2.60;;;2.40;;
11807;SDS011;5961;42.640;23.380;2023-08-07T06:26:29;2.97;;;2.77;;
11807;SDS011;5961;42.640;23.380;2023-08-07T06:28:57;3.37;;;2.90;;
11807;SDS011;5961;42.640;23.380;2023-08-07T06:31:24;3.90;;;2.80;;
11807;SDS011;5961;42.640;23.380;2023-08-07T06:33:50;3.57;;;2.40;;
11807;SDS011;5961;42.640;23.380;2023-08-07T06:36:17;2.40;;;2.20;;
11807;SDS011;5961;42.640;23.380;2023-08-07T06:38:44;2.57;;;2.47;;
11807;SDS011;5961;42.640;23.380;2023-08-07T06:41:11;2.93;;;2.57;;
11807;SDS011;5961;42.640;23.380;2023-08-07T06:43:38;2.67;;;2.47;;
11807;SDS011;5961;42.640;23.380;2023-08-07T06:46:06;2.50;;;2.30;;
11807;SDS011;5961;42.640;23.380;2023-08-07T06:48:33;2.27;;;2.17;;
11807;SDS011;5961;42.640;23.380;2023-08-07T06:50:59;2.90;;;2.20;;
11807;SDS011;5961;42.640;23.380;2023-08-07T06:53:26;1.80;;;1.70;;
11807;SDS011;5961;42.640;23.380;2023-08-07T06:55:53;1.90;;;1.80;;
11807;SDS011;5961;42.640;23.380;2023-08-07T06:58:20;2.17;;;2.07;;
11807;SDS011;5961;42.640;23.380;2023-08-07T07:00:47;1.90;;;1.80;;
11807;SDS011;5961;42.640;23.380;2023-08-07T07:03:15;1.80;;;1.70;;
11807;SDS011;5961;42.640;23.380;2023-08-07T07:05:41;2.73;;;1.93;;
11807;SDS011;5961;42.640;23.380;2023-08-07T07:08:08;4.30;;;2.57;;
11807;SDS011;5961;42.640;23.380;2023-08-07T07:10:35;2.30;;;2.10;;
11807;SDS011;5961;42.640;23.380;2023-08-07T07:13:02;2.10;;;1.80;;
11807;SDS011;5961;42.640;23.380;2023-08-07T07:15:28;1.70;;;1.60;;
11807;SDS011;5961;42.640;23.380;2023-08-07T07:17:55;2.00;;;1.90;;
11807;SDS011;5961;42.640;23.380;2023-08-07T07:20:23;2.03;;;1.93;;
11807;SDS011;5961;42.640;23.380;2023-08-07T07:22:51;2.10;;;1.97;;
11807;SDS011;5961;42.640;23.380;2023-08-07T07:25:18;2.80;;;1.90;;
11807;SDS011;5961;42.640;23.380;2023-08-07T07:27:45;2.00;;;1.90;;
11807;SDS011;5961;42.640;23.380;2023-08-07T07:30:11;1.77;;;1.67;;
11807;SDS011;5961;42.640;23.380;2023-08-07T07:32:38;1.90;;;1.80;;
11807;SDS011;5961;42.640;23.380;2023-08-07T07:35:05;2.10;;;1.93;;
11807;SDS011;5961;42.640;23.380;2023-08-07T07:37:34;2.23;;;1.90;;
11807;SDS011;5961;42.640;23.380;2023-08-07T07:40:00;3.30;;;1.93;;
11807;SDS011;5961;42.640;23.380;2023-08-07T07:42:27;2.07;;;1.97;;
11807;SDS011;5961;42.640;23.380;2023-08-07T07:44:54;2.97;;;2.63;;
11807;SDS011;5961;42.640;23.380;2023-08-07T07:47:21;2.20;;;2.10;;
11807;SDS011;5961;42.640;23.380;2023-08-07T07:49:47;2.53;;;2.33;;
11807;SDS011;5961;42.640;23.380;2023-08-07T07:52:14;2.93;;;2.73;;
11807;SDS011;5961;42.640;23.380;2023-08-07T07:54:43;2.60;;;2.40;;
11807;SDS011;5961;42.640;23.380;2023-08-07T07:57:09;4.80;;;2.42;;
11807;SDS011;5961;42.640;23.380;2023-08-07T07:59:36;2.67;;;2.42;;
11807;SDS011;5961;42.640;23.380;2023-08-07T08:02:03;2.60;;;2.40;;
11807;SDS011;5961;42.640;23.380;2023-08-07T08:04:30;4.30;;;2.83;;
11807;SDS011;5961;42.640;23.380;2023-08-07T08:06:57;2.55;;;2.35;;
11807;SDS011;5961;42.640;23.380;2023-08-07T08:09:24;2.47;;;2.27;;
11807;SDS011;5961;42.640;23.380;2023-08-07T08:11:52;2.60;;;2.40;;
11807;SDS011;5961;42.640;23.380;2023-08-07T08:14:19;2.38;;;1.77;;
11807;SDS011;5961;42.640;23.380;2023-08-07T08:16:46;3.20;;;2.90;;
11807;SDS011;5961;42.640;23.380;2023-08-07T08:19:13;2.35;;;2.20;;
11807;SDS011;5961;42.640;23.380;2023-08-07T08:21:41;4.22;;;3.42;;
11807;SDS011;5961;42.640;23.380;2023-08-07T08:24:08;2.00;;;1.90;;
11807;SDS011;5961;42.640;23.380;2023-08-07T08:26:35;2.25;;;2.15;;
11807;SDS011;5961;42.640;23.380;2023-08-07T08:29:03;3.00;;;2.45;;
11807;SDS011;5961;42.640;23.380;2023-08-07T08:31:30;2.55;;;2.35;;
11807;SDS011;5961;42.640;23.380;2023-08-07T08:33:57;2.50;;;2.30;;
11807;SDS011;5961;42.640;23.380;2023-08-07T08:36:24;2.40;;;2.15;;
11807;SDS011;5961;42.640;23.380;2023-08-07T08:38:50;2.95;;;2.20;;
11807;SDS011;5961;42.640;23.380;2023-08-07T08:41:17;3.42;;;2.40;;
11807;SDS011;5961;42.640;23.380;2023-08-07T08:43:45;3.58;;;3.28;;
11807;SDS011;5961;42.640;23.380;2023-08-07T08:46:15;2.70;;;2.50;;
11807;SDS011;5961;42.640;23.380;2023-08-07T08:48:43;3.55;;;2.20;;
11807;SDS011;5961;42.640;23.380;2023-08-07T08:51:13;3.22;;;2.58;;
11807;SDS011;5961;42.640;23.380;2023-08-07T08:53:40;2.78;;;2.58;;
11807;SDS011;5961;42.640;23.380;2023-08-07T08:56:07;3.55;;;2.40;;
11807;SDS011;5961;42.640;23.380;2023-08-07T08:58:35;2.38;;;2.28;;
11807;SDS011;5961;42.640;23.380;2023-08-07T09:01:01;2.97;;;2.40;;
11807;SDS011;5961;42.640;23.380;2023-08-07T09:03:30;2.80;;;2.60;;
11807;SDS011;5961;42.640;23.380;2023-08-07T09:05:57;2.30;;;2.20;;
11807;SDS011;5961;42.640;23.380;2023-08-07T09:08:24;2.80;;;2.60;;
11807;SDS011;5961;42.640;23.380;2023-08-07T09:10:54;2.30;;;2.20;;
11807;SDS011;5961;42.640;23.380;2023-08-07T09:13:22;3.05;;;2.13;;
11807;SDS011;5961;42.640;23.380;2023-08-07T09:15:50;2.33;;;2.00;;
11807;SDS011;5961;42.640;23.380;2023-08-07T09:18:17;2.05;;;1.92;;
11807;SDS011;5961;42.640;23.380;2023-08-07T09:20:46;2.22;;;2.13;;
11807;SDS011;5961;42.640;23.380;2023-08-07T09:23:14;2.30;;;2.20;;
11807;SDS011;5961;42.640;23.380;2023-08-07T09:25:41;2.53;;;2.03;;
11807;SDS011;5961;42.640;23.380;2023-08-07T09:28:08;2.20;;;2.00;;
11807;SDS011;5961;42.640;23.380;2023-08-07T09:30:36;3.42;;;2.20;;
11807;SDS011;5961;42.640;23.380;2023-08-07T09:33:03;2.60;;;2.40;;
11807;SDS011;5961;42.640;23.380;2023-08-07T09:35:31;2.00;;;1.90;;
11807;SDS011;5961;42.640;23.380;2023-08-07T09:37:59;2.45;;;2.20;;
11807;SDS011;5961;42.640;23.380;2023-08-07T09:40:27;2.10;;;2.00;;
11807;SDS011;5961;42.640;23.380;2023-08-07T09:42:55;2.38;;;2.20;;
11807;SDS011;5961;42.640;23.380;2023-08-07T09:45:23;2.22;;;2.13;;
11807;SDS011;5961;42.640;23.380;2023-08-07T09:47:57;2.00;;;1.90;;
11807;SDS011;5961;42.640;23.380;2023-08-07T09:50:25;2.40;;;2.20;;
11807;SDS011;5961;42.640;23.380;2023-08-07T09:52:52;3.92;;;2.35;;
11807;SDS011;5961;42.640;23.380;2023-08-07T09:55:20;2.38;;;2.10;;
11807;SDS011;5961;42.640;23.380;2023-08-07T09:57:47;2.47;;;2.13;;
11807;SDS011;5961;42.640;23.380;2023-08-07T10:00:15;2.50;;;2.05;;
11807;SDS011;5961;42.640;23.380;2023-08-07T10:02:45;2.40;;;2.20;;
11807;SDS011;5961;42.640;23.380;2023-08-07T10:05:12;2.72;;;2.20;;
11807;SDS011;5961;42.640;23.380;2023-08-07T10:07:39;2.95;;;2.67;;
11807;SDS011;5961;42.640;23.380;2023-08-07T10:10:07;2.63;;;2.42;;
11807;SDS011;5961;42.640;23.380;2023-08-07T10:12:36;2.40;;;2.25;;
11807;SDS011;5961;42.640;23.380;2023-08-07T10:15:03;2.10;;;2.00;;
11807;SDS011;5961;42.640;23.380;2023-08-07T10:17:30;2.75;;;2.00;;
11807;SDS011;5961;42.640;23.380;2023-08-07T10:19:58;2.25;;;2.03;;
11807;SDS011;5961;42.640;23.380;2023-08-07T10:22:25;3.08;;;2.00;;
11807;SDS011;5961;42.640;23.380;2023-08-07T10:24:53;2.05;;;1.90;;
11807;SDS011;5961;42.640;23.380;2023-08-07T10:27:22;2.40;;;2.20;;
11807;SDS011;5961;42.640;23.380;2023-08-07T10:29:53;2.10;;;1.90;;
11807;SDS011;5961;42.640;23.380;2023-08-07T10:32:23;2.00;;;1.90;;
11807;SDS011;5961;42.640;23.380;2023-08-07T10:34:52;3.95;;;2.10;;
11807;SDS011;5961;42.640;23.380;2023-08-07T10:37:31;2.22;;;2.13;;
11807;SDS011;5961;42.640;23.380;2023-08-07T10:40:00;2.63;;;2.40;;
11807;SDS011;5961;42.640;23.380;2023-08-07T10:42:28;3.88;;;2.50;;
11807;SDS011;5961;42.640;23.380;2023-08-07T10:45:02;1.90;;;1.80;;
11807;SDS011;5961;42.640;23.380;2023-08-07T10:47:34;2.00;;;1.90;;
11807;SDS011;5961;42.640;23.380;2023-08-07T10:50:00;2.20;;;1.73;;
11807;SDS011;5961;42.640;23.380;2023-08-07T10:52:27;3.05;;;2.00;;
11807;SDS011;5961;42.640;23.380;2023-08-07T10:54:54;2.45;;;1.88;;
11807;SDS011;5961;42.640;23.380;2023-08-07T10:57:20;1.90;;;1.80;;
11807;SDS011;5961;42.640;23.380;2023-08-07T10:59:51;2.38;;;2.20;;
11807;SDS011;5961;42.640;23.380;2023-08-07T11:02:30;2.10;;;2.00;;
11807;SDS011;5961;42.640;23.380;2023-08-07T11:04:58;2.13;;;1.90;;
11807;SDS011;5961;42.640;23.380;2023-08-07T11:07:25;4.30;;;2.08;;
11807;SDS011;5961;42.640;23.380;2023-08-07T11:09:53;5.40;;;2.00;;
11807;SDS011;5961;42.640;23.380;2023-08-07T11:12:20;2.58;;;2.00;;
11807;SDS011;5961;42.640;23.380;2023-08-07T11:14:50;2.60;;;2.00;;
11807;SDS011;5961;42.640;23.380;2023-08-07T11:17:19;2.78;;;2.10;;
11807;SDS011;5961;42.640;23.380;2023-08-07T11:19:46;2.10;;;2.00;;
11807;SDS011;5961;42.640;23.380;2023-08-07T11:22:14;2.15;;;2.05;;
11807;SDS011;5961;42.640;23.380;2023-08-07T11:24:41;3.00;;;2.00;;
11807;SDS011;5961;42.640;23.380;2023-08-07T11:27:08;2.25;;;2.15;;
11807;SDS011;5961;42.640;23.380;2023-08-07T11:29:35;3.05;;;2.10;;
11807;SDS011;5961;42.640;23.380;2023-08-07T11:32:02;3.75;;;2.60;;
11807;SDS011;5961;42.640;23.380;2023-08-07T11:34:30;2.53;;;2.35;;
11807;SDS011;5961;42.640;23.380;2023-08-07T11:36:57;4.63;;;3.20;;
11807;SDS011;5961;42.640;23.380;2023-08-07T11:39:25;4.18;;;2.83;;
11807;SDS011;5961;42.640;23.380;2023-08-07T11:41:51;2.47;;;2.28;;
11807;SDS011;5961;42.640;23.380;2023-08-07T11:44:18;3.95;;;2.78;;
11807;SDS011;5961;42.640;23.380;2023-08-07T11:46:45;2.72;;;2.25;;
11807;SDS011;5961;42.640;23.380;2023-08-07T11:49:12;2.75;;;2.55;;
11807;SDS011;5961;42.640;23.380;2023-08-07T11:51:40;2.95;;;2.75;;
11807;SDS011;5961;42.640;23.380;2023-08-07T11:54:13;5.03;;;3.20;;
11807;SDS011;5961;42.640;23.380;2023-08-07T11:56:41;3.17;;;2.60;;
11807;SDS011;5961;42.640;23.380;2023-08-07T11:59:08;3.63;;;2.10;;
11807;SDS011;5961;42.640;23.380;2023-08-07T12:01:37;2.78;;;2.58;;
11807;SDS011;5961;42.640;23.380;2023-08-07T12:04:08;2.65;;;2.38;;
11807;SDS011;5961;42.640;23.380;2023-08-07T12:06:36;2.22;;;2.13;;
11807;SDS011;5961;42.640;23.380;2023-08-07T12:09:06;3.88;;;2.38;;
11807;SDS011;5961;42.640;23.380;2023-08-07T12:11:37;3.03;;;2.22;;
11807;SDS011;5961;42.640;23.380;2023-08-07T12:14:04;2.22;;;2.00;;
11807;SDS011;5961;42.640;23.380;2023-08-07T12:16:32;2.40;;;1.85;;
11807;SDS011;5961;42.640;23.380;2023-08-07T12:18:59;3.70;;;2.28;;
11807;SDS011;5961;42.640;23.380;2023-08-07T12:21:27;2.30;;;2.10;;
11807;SDS011;5961;42.640;23.380;2023-08-07T12:23:55;2.67;;;2.47;;
11807;SDS011;5961;42.640;23.380;2023-08-07T12:26:23;3.63;;;2.70;;
11807;SDS011;5961;42.640;23.380;2023-08-07T12:28:50;2.33;;;2.13;;
11807;SDS011;5961;42.640;23.380;2023-08-07T12:31:17;2.40;;;2.20;;
11807;SDS011;5961;42.640;23.380;2023-08-07T12:33:44;2.67;;;2.47;;
11807;SDS011;5961;42.640;23.380;2023-08-07T12:36:11;4.05;;;2.20;;
11807;SDS011;5961;42.640;23.380;2023-08-07T12:38:39;2.85;;;2.08;;
11807;SDS011;5961;42.640;23.380;2023-08-07T12:41:06;4.38;;;2.40;;
11807;SDS011;5961;42.640;23.380;2023-08-07T12:43:34;3.67;;;2.55;;
11807;SDS011;5961;42.640;23.380;2023-08-07T12:46:00;2.10;;;2.00;;
11807;SDS011;5961;42.640;23.380;2023-08-07T12:48:27;2.40;;;2.00;;
11807;SDS011;5961;42.640;23.380;2023-08-07T12:50:54;3.25;;;2.15;;
11807;SDS011;5961;42.640;23.380;2023-08-07T12:53:21;2.13;;;2.00;;
11807;SDS011;5961;42.640;23.380;2023-08-07T12:55:47;2.25;;;2.00;;
11807;SDS011;5961;42.640;23.380;2023-08-07T12:58:14;3.17;;;2.20;;
11807;SDS011;5961;42.640;23.380;2023-08-07T13:00:45;2.10;;;2.00;;
11807;SDS011;5961;42.640;23.380;2023-08-07T13:03:11;3.55;;;2.42;;
11807;SDS011;5961;42.640;23.380;2023-08-07T13:05:38;2.35;;;2.20;;
11807;SDS011;5961;42.640;23.380;2023-08-07T13:08:05;2.65;;;2.40;;
11807;SDS011;5961;42.640;23.380;2023-08-07T13:10:32;2.50;;;2.30;;
11807;SDS011;5961;42.640;23.380;2023-08-07T13:12:58;3.20;;;2.38;;
11807;SDS011;5961;42.640;23.380;2023-08-07T13:15:26;2.53;;;2.33;;
11807;SDS011;5961;42.640;23.380;2023-08-07T13:17:55;2.40;;;2.30;;
11807;SDS011;5961;42.640;23.380;2023-08-07T13:20:22;2.97;;;2.78;;
11807;SDS011;5961;42.640;23.380;2023-08-07T13:22:51;6.57;;;2.17;;
11807;SDS011;5961;42.640;23.380;2023-08-07T13:25:17;2.58;;;2.38;;
11807;SDS011;5961;42.640;23.380;2023-08-07T13:27:44;5.65;;;2.40;;
11807;SDS011;5961;42.640;23.380;2023-08-07T13:30:11;2.35;;;2.15;;
11807;SDS011;5961;42.640;23.380;2023-08-07T13:32:38;2.72;;;2.30;;
11807;SDS011;5961;42.640;23.380;2023-08-07T13:35:06;3.20;;;2.28;;
11807;SDS011;5961;42.640;23.380;2023-08-07T13:37:34;2.30;;;2.10;;
11807;SDS011;5961;42.640;23.380;2023-08-07T13:40:03;2.70;;;2.40;;
11807;SDS011;5961;42.640;23.380;2023-08-07T13:42:30;2.47;;;2.28;;
11807;SDS011;5961;42.640;23.380;2023-08-07T13:44:57;2.67;;;2.28;;
11807;SDS011;5961;42.640;23.380;2023-08-07T13:47:24;2.33;;;2.08;;
11807;SDS011;5961;42.640;23.380;2023-08-07T13:49:51;2.33;;;2.10;;
11807;SDS011;5961;42.640;23.380;2023-08-07T13:52:20;2.00;;;1.90;;
11807;SDS011;5961;42.640;23.380;2023-08-07T13:54:47;2.00;;;1.90;;
11807;SDS011;5961;42.640;23.380;2023-08-07T13:57:14;3.05;;;2.22;;
11807;SDS011;5961;42.640;23.380;2023-08-07T13:59:40;2.20;;;2.00;;
11807;SDS011;5961;42.640;23.380;2023-08-07T14:02:07;2.75;;;2.15;;
11807;SDS011;5961;42.640;23.380;2023-08-07T14:04:34;2.95;;;2.10;;
11807;SDS011;5961;42.640;23.380;2023-08-07T14:07:01;2.45;;;2.20;;
11807;SDS011;5961;42.640;23.380;2023-08-07T14:09:30;2.25;;;2.05;;
11807;SDS011;5961;42.640;23.380;2023-08-07T14:11:56;2.33;;;2.10;;
11807;SDS011;5961;42.640;23.380;2023-08-07T14:14:23;3.15;;;2.05;;
11807;SDS011;5961;42.640;23.380;2023-08-07T14:16:50;2.40;;;2.20;;
11807;SDS011;5961;42.640;23.380;2023-08-07T14:19:19;3.67;;;2.20;;
11807;SDS011;5961;42.640;23.380;2023-08-07T14:21:46;2.22;;;2.13;;
11807;SDS011;5961;42.640;23.380;2023-08-07T14:24:12;2.85;;;2.05;;
11807;SDS011;5961;42.640;23.380;2023-08-07T14:26:40;2.40;;;2.30;;
11807;SDS011;5961;42.640;23.380;2023-08-07T14:29:07;2.33;;;2.22;;
11807;SDS011;5961;42.640;23.380;2023-08-07T14:31:34;3.28;;;2.40;;
11807;SDS011;5961;42.640;23.380;2023-08-07T14:34:00;2.30;;;2.20;;
11807;SDS011;5961;42.640;23.380;2023-08-07T14:36:27;2.63;;;2.42;;
11807;SDS011;5961;42.640;23.380;2023-08-07T14:38:54;2.25;;;2.10;;
11807;SDS011;5961;42.640;23.380;2023-08-07T14:41:21;2.28;;;2.08;;
11807;SDS011;5961;42.640;23.380;2023-08-07T14:43:49;3.42;;;2.10;;
11807;SDS011;5961;42.640;23.380;2023-08-07T14:46:16;2.00;;;1.90;;
11807;SDS011;5961;42.640;23.380;2023-08-07T14:48:43;2.17;;;1.98;;